createdAt,value
2018-07-04T00:00:18.624Z,34.13
2018-07-04T00:01:19.387Z,34.14
2018-07-04T00:02:20.164Z,33.86
2018-07-04T00:03:20.934Z,33.83
2018-07-04T00:04:21.705Z,33.99
2018-07-04T00:05:22.508Z,34.67
2018-07-04T00:06:23.276Z,34.88
2018-07-04T00:07:24.060Z,34.83
2018-07-04T00:08:24.820Z,34.62
2018-07-04T00:09:25.610Z,34.86
2018-07-04T00:10:26.403Z,34.68
2018-07-04T00:11:27.177Z,34.93
2018-07-04T00:12:27.956Z,34.78
2018-07-04T00:13:28.723Z,34.80
2018-07-04T00:14:29.509Z,34.53
2018-07-04T00:15:30.313Z,34.72
2018-07-04T00:16:31.074Z,34.73
2018-07-04T00:17:31.844Z,34.65
2018-07-04T00:18:32.634Z,34.76
2018-07-04T00:19:33.395Z,34.93
2018-07-04T00:20:34.613Z,35.11
2018-07-04T00:21:34.833Z,35.35
2018-07-04T00:26:32.012Z,35.18
2018-07-04T00:27:33.780Z,35.18
2018-07-04T00:28:34.565Z,35.67
2018-07-04T00:29:35.344Z,35.70
2018-07-04T00:30:36.104Z,35.76
2018-07-04T00:31:36.899Z,35.72
2018-07-04T00:32:37.677Z,35.45
2018-07-04T00:33:38.449Z,35.35
2018-07-04T00:34:39.217Z,35.21
2018-07-04T00:35:39.993Z,35.27
2018-07-04T00:36:44.300Z,35.26
2018-07-04T00:37:41.069Z,35.63
2018-07-04T00:38:41.837Z,35.92
2018-07-04T00:39:42.608Z,36.02
2018-07-04T00:40:43.389Z,36.18
2018-07-04T00:41:44.188Z,36.29
2018-07-04T00:42:44.959Z,36.43
2018-07-04T00:43:45.745Z,36.56
2018-07-04T00:44:46.512Z,36.49
2018-07-04T00:45:47.310Z,36.56
2018-07-04T00:46:48.098Z,36.40
2018-07-04T00:47:48.861Z,36.51
2018-07-04T00:48:49.636Z,36.65
2018-07-04T00:49:50.414Z,36.66
2018-07-04T00:50:51.190Z,36.71
2018-07-04T00:51:51.984Z,36.59
2018-07-04T00:52:52.756Z,36.77
2018-07-04T00:53:53.536Z,36.61
2018-07-04T00:54:54.304Z,36.75
2018-07-04T00:55:55.085Z,36.73
2018-07-04T00:56:55.875Z,36.82
2018-07-04T00:57:56.655Z,36.91
2018-07-04T00:58:57.425Z,37.05
2018-07-04T00:59:58.196Z,37.17
2018-07-04T01:00:58.966Z,37.24
2018-07-04T01:01:59.784Z,37.18
2018-07-04T01:03:00.554Z,37.09
2018-07-04T01:04:01.334Z,37.12
2018-07-04T01:05:02.111Z,37.11
2018-07-04T01:06:02.874Z,37.20
2018-07-04T01:07:03.670Z,37.25
2018-07-04T01:08:04.456Z,37.30
2018-07-04T01:09:05.225Z,37.50
2018-07-04T01:10:05.995Z,37.63
2018-07-04T01:11:06.775Z,37.61
2018-07-04T01:12:07.568Z,37.61
2018-07-04T01:13:08.374Z,37.57
2018-07-04T01:14:09.114Z,37.21
2018-07-04T01:15:09.897Z,37.31
2018-07-04T01:16:10.666Z,37.24
2018-07-04T01:17:11.468Z,37.46
2018-07-04T01:18:12.247Z,37.07
2018-07-04T01:19:13.022Z,37.70
2018-07-04T01:20:13.796Z,37.44
2018-07-04T01:21:14.567Z,37.75
2018-07-04T01:22:15.363Z,38.00
2018-07-04T01:23:16.143Z,38.18
2018-07-04T01:24:16.914Z,37.99
2018-07-04T01:25:17.686Z,37.97
2018-07-04T01:26:18.466Z,37.92
2018-07-04T01:27:19.261Z,37.85
2018-07-04T01:28:20.059Z,37.88
2018-07-04T01:29:20.819Z,37.75
2018-07-04T01:30:21.596Z,37.95
2018-07-04T01:31:22.376Z,37.71
2018-07-04T01:32:23.172Z,37.87
2018-07-04T01:33:24.041Z,37.77
2018-07-04T01:34:23.744Z,38.19
2018-07-04T01:35:25.513Z,37.96
2018-07-04T01:36:26.291Z,38.16
2018-07-04T01:37:27.089Z,38.05
2018-07-04T01:38:27.861Z,37.95
2018-07-04T01:39:28.653Z,37.80
2018-07-04T01:40:29.418Z,37.96
2018-07-04T01:41:30.193Z,37.95
2018-07-04T01:42:31.011Z,37.76
2018-07-04T01:43:31.770Z,38.20
2018-07-04T01:44:32.548Z,37.70
2018-07-04T01:45:33.318Z,38.19
2018-07-04T01:46:34.106Z,37.85
2018-07-04T01:47:34.900Z,38.01
2018-07-04T01:48:35.675Z,38.18
2018-07-04T01:49:36.446Z,38.10
2018-07-04T01:50:37.230Z,37.93
2018-07-04T01:51:37.998Z,38.06
2018-07-04T01:52:38.800Z,38.25
2018-07-04T01:53:39.609Z,38.34
2018-07-04T01:54:40.381Z,38.16
2018-07-04T01:55:41.148Z,38.36
2018-07-04T01:56:41.968Z,38.54
2018-07-04T01:57:41.737Z,38.27
2018-07-04T01:58:43.520Z,38.69
2018-07-04T01:59:44.324Z,38.64
2018-07-04T02:00:44.059Z,38.69
2018-07-04T02:01:45.844Z,38.56
2018-07-04T02:02:46.633Z,38.68
2018-07-04T02:03:47.421Z,38.61
2018-07-04T02:04:50.607Z,38.41
2018-07-04T02:05:47.975Z,38.44
2018-07-04T02:06:49.742Z,38.42
2018-07-04T02:07:50.559Z,38.95
2018-07-04T02:08:51.332Z,38.35
2018-07-04T02:09:52.100Z,38.95
2018-07-04T02:10:52.895Z,38.70
2018-07-04T02:11:53.673Z,38.41
2018-07-04T02:12:54.465Z,39.10
2018-07-04T02:13:55.244Z,38.57
2018-07-04T02:14:56.066Z,38.88
2018-07-04T02:15:55.830Z,38.86
2018-07-04T02:16:57.574Z,39.24
2018-07-04T02:17:58.796Z,38.83
2018-07-04T02:20:53.499Z,38.99
2018-07-04T02:21:54.270Z,38.98
2018-07-04T02:22:55.045Z,39.02
2018-07-04T02:23:55.848Z,39.66
2018-07-04T02:24:56.610Z,39.28
2018-07-04T02:25:57.393Z,39.34
2018-07-04T02:26:58.155Z,39.24
2018-07-04T02:27:58.924Z,39.38
2018-07-04T02:28:59.749Z,39.47
2018-07-04T02:30:00.504Z,39.06
2018-07-04T02:31:01.274Z,38.89
2018-07-04T02:32:02.042Z,39.39
2018-07-04T02:33:02.815Z,39.33
2018-07-04T02:34:03.615Z,39.28
2018-07-04T02:35:04.397Z,39.51
2018-07-04T02:36:05.168Z,39.65
2018-07-04T02:37:05.954Z,39.79
2018-07-04T02:38:06.711Z,39.98
2018-07-04T02:39:07.508Z,39.88
2018-07-04T02:40:08.278Z,40.12
2018-07-04T02:41:09.052Z,39.44
2018-07-04T02:42:09.822Z,39.58
2018-07-04T02:43:10.591Z,39.57
2018-07-04T02:44:11.394Z,40.16
2018-07-04T02:45:12.169Z,40.20
2018-07-04T02:46:12.938Z,40.07
2018-07-04T02:47:13.727Z,40.13
2018-07-04T02:48:14.489Z,40.25
2018-07-04T02:49:15.287Z,40.44
2018-07-04T02:50:16.048Z,40.21
2018-07-04T02:51:16.835Z,39.99
2018-07-04T02:52:17.595Z,40.25
2018-07-04T02:53:18.382Z,40.19
2018-07-04T02:54:19.172Z,40.39
2018-07-04T02:55:19.943Z,40.48
2018-07-04T02:56:20.719Z,40.47
2018-07-04T02:57:21.493Z,40.61
2018-07-04T02:58:22.265Z,40.37
2018-07-04T02:59:23.068Z,40.60
2018-07-04T03:00:23.835Z,40.36
2018-07-04T03:01:24.602Z,40.46
2018-07-04T03:02:25.383Z,40.12
2018-07-04T03:03:26.171Z,40.28
2018-07-04T03:04:26.971Z,40.08
2018-07-04T03:05:27.722Z,39.98
2018-07-04T03:06:28.497Z,39.68
2018-07-04T03:07:29.268Z,39.88
2018-07-04T03:08:30.045Z,40.56
2018-07-04T03:09:30.843Z,40.59
2018-07-04T03:10:31.618Z,40.89
2018-07-04T03:11:32.395Z,40.67
2018-07-04T03:12:33.165Z,40.65
2018-07-04T03:13:33.940Z,40.68
2018-07-04T03:14:34.730Z,40.03
2018-07-04T03:15:35.502Z,40.05
2018-07-04T03:16:36.282Z,40.52
2018-07-04T03:17:37.056Z,40.80
2018-07-04T03:18:37.830Z,40.32
2018-07-04T03:19:38.628Z,41.16
2018-07-04T03:20:39.402Z,40.72
2018-07-04T03:21:40.173Z,40.64
2018-07-04T03:22:40.946Z,40.84
2018-07-04T03:23:41.727Z,40.94
2018-07-04T03:24:42.526Z,40.54
2018-07-04T03:25:43.299Z,40.65
2018-07-04T03:26:44.073Z,40.39
2018-07-04T03:27:44.843Z,40.32
2018-07-04T03:28:45.620Z,40.34
2018-07-04T03:29:46.429Z,40.70
2018-07-04T03:30:47.201Z,40.64
2018-07-04T03:31:47.971Z,40.56
2018-07-04T03:32:48.751Z,40.49
2018-07-04T03:33:51.691Z,41.00
2018-07-04T03:34:49.335Z,40.91
2018-07-04T03:35:51.122Z,40.48
2018-07-04T03:36:51.880Z,41.47
2018-07-04T03:37:52.651Z,41.09
2018-07-04T03:38:53.428Z,41.40
2018-07-04T03:39:54.226Z,40.97
2018-07-04T03:40:55.005Z,41.29
2018-07-04T03:41:55.774Z,41.22
2018-07-04T03:42:56.568Z,40.85
2018-07-04T03:43:57.344Z,41.11
2018-07-04T03:44:58.141Z,40.75
2018-07-04T03:45:58.911Z,40.93
2018-07-04T03:46:59.679Z,41.34
2018-07-04T03:48:00.455Z,41.33
2018-07-04T03:49:01.226Z,41.43
2018-07-04T03:50:02.024Z,41.28
2018-07-04T03:51:02.802Z,41.45
2018-07-04T03:52:03.575Z,41.40
2018-07-04T03:53:04.352Z,41.06
2018-07-04T03:54:05.120Z,41.28
2018-07-04T03:55:05.928Z,41.05
2018-07-04T03:56:06.694Z,41.41
2018-07-04T03:57:07.469Z,41.16
2018-07-04T03:58:08.279Z,41.59
2018-07-04T03:59:08.014Z,41.25
2018-07-04T04:00:09.817Z,41.67
2018-07-04T04:01:10.599Z,41.24
2018-07-04T04:02:11.367Z,41.34
2018-07-04T04:03:12.152Z,41.26
2018-07-04T04:04:12.916Z,41.18
2018-07-04T04:05:13.715Z,41.40
2018-07-04T04:06:14.493Z,41.55
2018-07-04T04:07:15.271Z,41.79
2018-07-04T04:08:15.049Z,41.77
2018-07-04T04:09:16.806Z,41.69
2018-07-04T04:10:18.004Z,42.04
2018-07-04T04:24:55.721Z,41.58
2018-07-04T04:25:56.517Z,41.58
2018-07-04T04:26:57.288Z,41.26
2018-07-04T04:27:58.059Z,41.58
2018-07-04T04:28:58.839Z,41.48
2018-07-04T04:29:59.621Z,41.44
2018-07-04T04:31:00.421Z,41.97
2018-07-04T04:32:01.201Z,41.41
2018-07-04T04:33:01.965Z,42.18
2018-07-04T04:34:02.732Z,41.92
2018-07-04T04:35:03.506Z,42.01
2018-07-04T04:36:04.304Z,41.79
2018-07-04T04:37:05.073Z,41.83
2018-07-04T04:38:05.853Z,41.71
2018-07-04T04:39:06.631Z,41.60
2018-07-04T04:40:07.404Z,41.68
2018-07-04T04:41:08.194Z,41.89
2018-07-04T04:42:08.968Z,41.25
2018-07-04T04:43:09.739Z,41.54
2018-07-04T04:44:10.512Z,41.68
2018-07-04T04:45:11.284Z,41.35
2018-07-04T04:46:12.080Z,41.18
2018-07-04T04:47:12.857Z,41.39
2018-07-04T04:48:13.625Z,41.95
2018-07-04T04:49:14.400Z,42.45
2018-07-04T04:50:15.176Z,42.07
2018-07-04T04:51:15.970Z,41.71
2018-07-04T04:52:15.745Z,41.64
2018-07-04T04:53:17.517Z,41.56
2018-07-04T04:54:18.297Z,41.72
2018-07-04T04:55:19.063Z,40.98
2018-07-04T04:56:19.863Z,41.32
2018-07-04T04:57:20.635Z,41.08
2018-07-04T04:58:21.410Z,41.28
2018-07-04T04:59:22.184Z,41.39
2018-07-04T05:00:22.959Z,41.60
2018-07-04T05:01:23.761Z,41.58
2018-07-04T05:02:24.532Z,41.13
2018-07-04T05:03:25.304Z,41.74
2018-07-04T05:04:26.079Z,41.41
2018-07-04T05:05:26.855Z,41.70
2018-07-04T05:06:27.652Z,42.00
2018-07-04T05:07:28.423Z,41.63
2018-07-04T05:08:29.200Z,41.16
2018-07-04T05:09:29.968Z,41.19
2018-07-04T05:10:30.760Z,41.86
2018-07-04T05:11:31.551Z,41.49
2018-07-04T05:12:31.323Z,41.28
2018-07-04T05:13:33.104Z,40.67
2018-07-04T05:14:33.870Z,40.76
2018-07-04T05:15:34.648Z,40.66
2018-07-04T05:16:35.442Z,41.32
2018-07-04T05:17:36.215Z,40.60
2018-07-04T05:18:36.987Z,41.13
2018-07-04T05:19:37.763Z,41.18
2018-07-04T05:20:38.539Z,41.00
2018-07-04T05:21:39.336Z,41.07
2018-07-04T05:22:40.159Z,41.12
2018-07-04T05:23:39.884Z,41.20
2018-07-04T05:24:41.653Z,40.27
2018-07-04T05:25:42.429Z,41.19
2018-07-04T05:26:43.226Z,40.64
2018-07-04T05:27:44.007Z,40.70
2018-07-04T05:28:44.775Z,41.20
2018-07-04T05:29:45.557Z,40.85
2018-07-04T05:30:46.357Z,40.64
2018-07-04T05:31:47.120Z,40.45
2018-07-04T05:32:47.901Z,40.67
2018-07-04T05:33:48.667Z,40.66
2018-07-04T05:34:49.438Z,40.97
2018-07-04T05:35:50.214Z,40.96
2018-07-04T05:36:51.008Z,40.98
2018-07-04T05:37:51.783Z,41.24
2018-07-04T05:38:52.555Z,41.28
2018-07-04T05:39:53.329Z,41.16
2018-07-04T05:40:53.123Z,40.29
2018-07-04T05:41:54.904Z,41.03
2018-07-04T05:42:55.675Z,40.70
2018-07-04T05:43:56.447Z,40.79
2018-07-04T05:44:57.221Z,40.65
2018-07-04T05:45:57.996Z,40.64
2018-07-04T05:46:58.801Z,40.65
2018-07-04T05:47:59.576Z,41.18
2018-07-04T05:49:00.350Z,40.54
2018-07-04T05:50:01.114Z,41.14
2018-07-04T05:51:01.890Z,40.68
2018-07-04T05:52:02.686Z,40.30
2018-07-04T05:53:03.473Z,40.57
2018-07-04T05:54:04.243Z,40.73
2018-07-04T05:55:05.017Z,40.54
2018-07-04T05:56:05.805Z,40.21
2018-07-04T05:57:06.594Z,39.89
2018-07-04T05:58:07.370Z,40.12
2018-07-04T05:59:08.146Z,39.96
2018-07-04T06:00:08.915Z,40.60
2018-07-04T06:01:09.696Z,40.38
2018-07-04T06:02:10.488Z,39.59
2018-07-04T06:03:11.267Z,40.13
2018-07-04T06:04:12.032Z,40.57
2018-07-04T06:05:12.811Z,40.67
2018-07-04T06:06:13.592Z,39.75
2018-07-04T06:07:14.402Z,40.45
2018-07-04T06:08:15.163Z,40.54
2018-07-04T06:09:15.933Z,40.38
2018-07-04T06:10:16.706Z,40.38
2018-07-04T06:11:17.479Z,40.40
2018-07-04T06:12:18.282Z,40.29
2018-07-04T06:13:19.056Z,40.41
2018-07-04T06:14:19.826Z,40.27
2018-07-04T06:15:20.988Z,40.27
2018-07-04T06:16:21.724Z,40.35
2018-07-04T06:29:24.948Z,39.17
2018-07-04T06:30:25.716Z,39.15
2018-07-04T06:31:26.489Z,39.11
2018-07-04T06:32:27.316Z,39.00
2018-07-04T06:33:27.037Z,38.94
2018-07-04T06:34:28.832Z,38.83
2018-07-04T06:35:29.612Z,38.38
2018-07-04T06:36:30.376Z,38.61
2018-07-04T06:37:31.149Z,38.51
2018-07-04T06:38:31.920Z,38.22
2018-07-04T06:39:32.720Z,38.29
2018-07-04T06:40:33.493Z,38.34
2018-07-04T06:41:34.269Z,38.31
2018-07-04T06:42:35.041Z,37.89
2018-07-04T06:43:35.822Z,38.08
2018-07-04T06:44:36.625Z,38.38
2018-07-04T06:45:37.392Z,37.80
2018-07-04T06:46:38.173Z,37.56
2018-07-04T06:47:38.940Z,38.00
2018-07-04T06:48:39.714Z,37.55
2018-07-04T06:49:40.517Z,37.46
2018-07-04T06:50:41.284Z,37.74
2018-07-04T06:51:42.058Z,37.88
2018-07-04T06:52:42.831Z,37.72
2018-07-04T06:53:43.601Z,37.37
2018-07-04T06:54:44.406Z,37.62
2018-07-04T06:55:45.172Z,37.74
2018-07-04T06:56:45.952Z,37.44
2018-07-04T06:57:46.722Z,37.28
2018-07-04T06:58:47.499Z,37.20
2018-07-04T06:59:48.290Z,37.06
2018-07-04T07:00:49.058Z,37.28
2018-07-04T07:01:49.859Z,37.29
2018-07-04T07:02:50.609Z,37.11
2018-07-04T07:03:51.382Z,37.08
2018-07-04T07:04:52.178Z,37.05
2018-07-04T07:05:52.947Z,37.52
2018-07-04T07:06:53.720Z,37.50
2018-07-04T07:07:54.493Z,36.56
2018-07-04T07:08:55.274Z,36.90
2018-07-04T07:09:56.066Z,36.68
2018-07-04T07:10:56.836Z,36.70
2018-07-04T07:11:57.612Z,36.60
2018-07-04T07:12:58.383Z,36.53
2018-07-04T07:13:59.157Z,36.37
2018-07-04T07:14:59.963Z,36.08
2018-07-04T07:16:00.744Z,36.10
2018-07-04T07:17:01.514Z,35.99
2018-07-04T07:18:02.282Z,36.00
2018-07-04T07:19:03.063Z,35.96
2018-07-04T07:20:03.860Z,35.78
2018-07-04T07:21:03.642Z,35.87
2018-07-04T07:22:05.405Z,35.72
2018-07-04T07:23:06.184Z,35.65
2018-07-04T07:24:06.977Z,35.56
2018-07-04T07:25:07.749Z,35.56
2018-07-04T07:26:08.524Z,35.49
2018-07-04T07:27:09.295Z,35.57
2018-07-04T07:28:10.067Z,35.62
2018-07-04T07:29:10.845Z,35.50
2018-07-04T07:30:11.641Z,35.51
2018-07-04T07:31:12.414Z,35.57
2018-07-04T07:32:13.194Z,35.39
2018-07-04T07:33:13.968Z,35.41
2018-07-04T07:34:14.835Z,35.47
2018-07-04T07:35:14.538Z,35.44
2018-07-04T07:36:16.309Z,35.37
2018-07-04T07:37:17.086Z,35.33
2018-07-04T07:38:16.854Z,35.19
2018-07-04T07:39:18.631Z,35.05
2018-07-04T07:40:19.434Z,34.99
2018-07-04T07:41:20.205Z,34.77
2018-07-04T07:42:20.979Z,34.63
2018-07-04T07:43:21.765Z,34.57
2018-07-04T07:44:22.528Z,34.44
2018-07-04T07:45:23.320Z,34.35
2018-07-04T07:46:24.174Z,34.17
2018-07-04T07:47:23.944Z,34.03
2018-07-04T07:48:25.721Z,34.18
2018-07-04T07:49:26.500Z,33.98
2018-07-04T07:50:27.295Z,33.72
2018-07-04T07:51:28.065Z,33.57
2018-07-04T07:52:28.842Z,33.43
2018-07-04T07:53:29.610Z,33.33
2018-07-04T07:54:30.458Z,33.22
2018-07-04T07:55:30.179Z,33.08
2018-07-04T07:56:31.965Z,32.93
2018-07-04T07:57:32.736Z,32.64
2018-07-04T07:58:33.512Z,32.32
2018-07-04T07:59:34.286Z,31.95
2018-07-04T08:00:35.081Z,31.61
2018-07-04T08:01:35.857Z,31.29
2018-07-04T08:02:36.625Z,30.98
2018-07-04T08:03:37.403Z,30.77
2018-07-04T08:04:38.176Z,30.59
2018-07-04T08:05:38.976Z,30.39
2018-07-04T08:06:39.990Z,30.29
2018-07-04T08:07:39.685Z,30.10
2018-07-04T08:08:41.459Z,30.04
2018-07-04T08:09:42.237Z,29.92
2018-07-04T08:10:43.033Z,29.76
2018-07-04T08:11:43.803Z,29.62
2018-07-04T08:12:44.635Z,29.52
2018-07-04T08:13:44.353Z,29.52
2018-07-04T08:14:46.126Z,29.49
2018-07-04T08:15:46.919Z,29.56
2018-07-04T08:16:47.695Z,29.62
2018-07-04T08:17:48.474Z,29.77
2018-07-04T08:18:49.274Z,29.76
2018-07-04T08:19:49.022Z,30.14
2018-07-04T08:20:50.818Z,30.47
2018-07-04T08:21:51.590Z,30.78
2018-07-04T08:22:52.363Z,31.32
2018-07-04T08:23:56.383Z,31.64
2018-07-04T08:24:53.737Z,31.40
2018-07-04T08:25:52.954Z,30.68
2018-07-04T08:27:17.550Z,31.00
2018-07-04T08:28:18.318Z,31.06
2018-07-04T08:29:19.089Z,31.50
2018-07-04T08:30:19.862Z,31.95
2018-07-04T08:31:20.667Z,32.27
2018-07-04T08:32:21.441Z,32.46
2018-07-04T08:33:22.270Z,32.50
2018-07-04T08:34:22.165Z,32.29
2018-07-04T08:35:22.863Z,32.19
2018-07-04T08:36:24.660Z,32.39
2018-07-04T08:37:25.424Z,32.51
2018-07-04T08:38:26.195Z,32.54
2018-07-04T08:39:26.973Z,32.49
2018-07-04T08:40:27.745Z,32.26
2018-07-04T08:41:28.574Z,31.13
2018-07-04T08:42:29.339Z,31.15
2018-07-04T08:43:30.120Z,31.44
2018-07-04T08:44:30.882Z,31.63
2018-07-04T08:45:31.657Z,31.50
2018-07-04T08:46:32.453Z,31.47
2018-07-04T08:47:33.226Z,31.24
2018-07-04T08:48:33.992Z,30.97
2018-07-04T08:49:34.765Z,31.12
2018-07-04T08:50:35.577Z,31.34
2018-07-04T08:51:35.336Z,31.38
2018-07-04T08:52:36.139Z,31.63
2018-07-04T08:53:36.883Z,31.80
2018-07-04T08:54:38.655Z,31.89
2018-07-04T08:55:39.426Z,31.95
2018-07-04T08:56:40.225Z,31.97
2018-07-04T08:57:40.997Z,31.98
2018-07-04T08:58:41.848Z,31.97
2018-07-04T08:59:41.546Z,31.62
2018-07-04T09:00:43.318Z,31.15
2018-07-04T09:01:44.115Z,30.94
2018-07-04T09:02:44.888Z,31.40
2018-07-04T09:03:45.665Z,31.87
2018-07-04T09:04:46.432Z,32.21
2018-07-04T09:05:47.216Z,32.64
2018-07-04T09:06:48.013Z,32.96
2018-07-04T09:07:48.777Z,33.13
2018-07-04T09:08:49.550Z,33.30
2018-07-04T09:09:50.322Z,33.36
2018-07-04T09:10:51.099Z,33.32
2018-07-04T09:11:51.937Z,33.56
2018-07-04T09:12:51.666Z,33.29
2018-07-04T09:13:53.437Z,32.47
2018-07-04T09:14:54.214Z,32.08
2018-07-04T09:15:54.984Z,31.77
2018-07-04T09:16:55.782Z,30.95
2018-07-04T09:17:56.556Z,30.77
2018-07-04T09:18:57.352Z,30.60
2018-07-04T09:19:58.114Z,30.89
2018-07-04T09:20:58.909Z,32.29
2018-07-04T09:21:59.691Z,33.12
2018-07-04T09:23:00.467Z,34.11
2018-07-04T09:24:01.239Z,39.14
2018-07-04T09:25:02.012Z,42.76
2018-07-04T09:26:02.786Z,41.00
2018-07-04T09:27:03.593Z,40.72
2018-07-04T09:28:04.364Z,41.24
2018-07-04T09:29:05.132Z,41.91
2018-07-04T09:30:05.915Z,41.82
2018-07-04T09:31:06.690Z,43.50
2018-07-04T09:32:07.478Z,44.10
2018-07-04T09:33:08.258Z,44.74
2018-07-04T09:34:09.029Z,44.47
2018-07-04T09:35:09.800Z,44.70
2018-07-04T09:36:10.579Z,45.16
2018-07-04T09:37:11.373Z,44.98
2018-07-04T09:38:12.145Z,45.77
2018-07-04T09:39:12.930Z,45.82
2018-07-04T09:40:13.694Z,45.81
2018-07-04T09:41:14.473Z,46.61
2018-07-04T09:42:15.279Z,46.83
2018-07-04T09:43:16.046Z,47.16
2018-07-04T09:44:16.819Z,47.22
2018-07-04T09:45:17.598Z,46.71
2018-07-04T09:46:18.377Z,46.17
2018-07-04T09:47:19.168Z,46.31
2018-07-04T09:48:19.950Z,46.86
2018-07-04T09:49:20.712Z,45.83
2018-07-04T09:50:21.488Z,47.82
2018-07-04T09:51:22.260Z,47.63
2018-07-04T09:52:23.062Z,47.58
2018-07-04T09:53:23.830Z,47.92
2018-07-04T09:54:24.609Z,48.32
2018-07-04T09:55:25.381Z,48.92
2018-07-04T09:56:26.161Z,48.81
2018-07-04T09:57:26.954Z,48.91
2018-07-04T09:58:27.723Z,48.82
2018-07-04T09:59:28.495Z,49.31
2018-07-04T10:00:29.274Z,49.13
2018-07-04T10:01:30.047Z,49.33
2018-07-04T10:02:30.846Z,50.40
2018-07-04T10:03:31.707Z,50.38
2018-07-04T10:04:31.449Z,50.54
2018-07-04T10:05:33.218Z,50.51
2018-07-04T10:06:33.992Z,50.87
2018-07-04T10:07:34.794Z,51.07
2018-07-04T10:08:35.571Z,50.75
2018-07-04T10:09:36.337Z,50.35
2018-07-04T10:10:37.294Z,51.42
2018-07-04T10:11:36.978Z,51.21
2018-07-04T10:12:38.794Z,51.77
2018-07-04T10:13:38.782Z,51.71
2018-07-04T10:14:39.480Z,51.42
2018-07-04T10:15:41.259Z,51.10
2018-07-04T10:16:42.029Z,51.09
2018-07-04T10:17:43.091Z,52.53
2018-07-04T10:18:42.784Z,51.28
2018-07-04T10:19:44.559Z,51.60
2018-07-04T10:20:45.330Z,54.15
2018-07-04T10:21:46.100Z,54.00
2018-07-04T10:22:46.948Z,53.30
2018-07-04T10:23:47.700Z,52.92
2018-07-04T10:24:48.856Z,52.75
2018-07-04T10:26:23.416Z,53.06
2018-07-04T10:27:24.180Z,53.15
2018-07-04T10:28:24.968Z,52.50
2018-07-04T10:29:25.739Z,51.70
2018-07-04T10:30:26.517Z,52.02
2018-07-04T10:31:27.294Z,51.78
2018-07-04T10:32:28.063Z,51.51
2018-07-04T10:33:28.853Z,52.26
2018-07-04T10:34:29.627Z,52.04
2018-07-04T10:35:30.403Z,52.16
2018-07-04T10:36:31.175Z,52.46
2018-07-04T10:37:32.003Z,52.98
2018-07-04T10:38:31.741Z,54.60
2018-07-04T10:39:33.516Z,54.84
2018-07-04T10:40:34.292Z,54.32
2018-07-04T10:41:35.073Z,55.91
2018-07-04T10:42:35.835Z,55.95
2018-07-04T10:43:36.635Z,55.46
2018-07-04T10:44:37.400Z,55.72
2018-07-04T10:45:38.185Z,55.96
2018-07-04T10:46:38.965Z,53.80
2018-07-04T10:47:39.737Z,54.39
2018-07-04T10:48:40.529Z,53.49
2018-07-04T10:49:41.304Z,53.95
2018-07-04T10:50:42.066Z,53.51
2018-07-04T10:51:42.849Z,53.82
2018-07-04T10:52:43.613Z,54.71
2018-07-04T10:53:44.416Z,55.61
2018-07-04T10:54:45.198Z,54.32
2018-07-04T10:55:45.975Z,54.82
2018-07-04T10:56:46.741Z,53.32
2018-07-04T10:57:47.519Z,53.22
2018-07-04T10:58:48.379Z,52.16
2018-07-04T10:59:48.124Z,51.86
2018-07-04T11:00:49.890Z,52.97
2018-07-04T11:01:50.667Z,50.74
2018-07-04T11:02:51.437Z,50.65
2018-07-04T11:03:52.239Z,50.85
2018-07-04T11:04:54.016Z,50.54
2018-07-04T11:05:53.782Z,50.32
2018-07-04T11:06:54.554Z,49.85
2018-07-04T11:07:55.330Z,49.64
2018-07-04T11:08:56.133Z,49.49
2018-07-04T11:09:56.904Z,49.03
2018-07-04T11:10:57.677Z,48.73
2018-07-04T11:11:58.452Z,48.63
2018-07-04T11:12:59.220Z,48.79
2018-07-04T11:14:00.030Z,48.14
2018-07-04T11:15:00.798Z,49.52
2018-07-04T11:16:01.573Z,50.43
2018-07-04T11:17:02.395Z,50.78
2018-07-04T11:18:02.120Z,50.82
2018-07-04T11:19:03.921Z,50.80
2018-07-04T11:20:04.688Z,51.11
2018-07-04T11:21:05.464Z,50.95
2018-07-04T11:22:06.235Z,50.85
2018-07-04T11:23:07.011Z,50.41
2018-07-04T11:24:07.818Z,50.29
2018-07-04T11:25:08.589Z,49.65
2018-07-04T11:26:09.359Z,50.79
2018-07-04T11:27:10.133Z,50.27
2018-07-04T11:28:10.902Z,50.79
2018-07-04T11:29:12.054Z,50.53
2018-07-04T11:30:11.008Z,49.68
2018-07-04T11:31:11.691Z,49.89
2018-07-04T11:32:13.681Z,48.89
2018-07-04T11:33:13.614Z,48.78
2018-07-04T11:34:14.352Z,48.84
2018-07-04T11:35:16.112Z,48.46
2018-07-04T11:36:16.891Z,47.75
2018-07-04T11:37:17.659Z,47.94
2018-07-04T11:38:18.440Z,48.72
2018-07-04T11:39:19.231Z,48.22
2018-07-04T11:40:20.005Z,47.66
2018-07-04T11:41:20.776Z,48.04
2018-07-04T11:42:21.555Z,46.14
2018-07-04T11:43:22.322Z,45.61
2018-07-04T11:44:23.124Z,46.06
2018-07-04T11:45:23.895Z,46.13
2018-07-04T11:46:24.693Z,44.94
2018-07-04T11:47:25.442Z,44.89
2018-07-04T11:48:26.418Z,45.23
2018-07-04T11:49:26.329Z,44.20
2018-07-04T11:50:28.097Z,45.43
2018-07-04T11:51:28.882Z,44.42
2018-07-04T11:52:29.658Z,44.17
2018-07-04T11:53:30.429Z,45.33
2018-07-04T11:54:31.220Z,45.83
2018-07-04T11:55:32.005Z,43.51
2018-07-04T11:56:32.822Z,43.04
2018-07-04T11:57:32.554Z,44.65
2018-07-04T11:58:34.505Z,43.95
2018-07-04T11:59:34.539Z,44.47
2018-07-04T12:00:35.280Z,43.80
2018-07-04T12:01:36.071Z,43.57
2018-07-04T12:02:36.827Z,43.30
2018-07-04T12:03:37.788Z,43.35
2018-07-04T12:04:37.514Z,43.61
2018-07-04T12:05:39.288Z,43.33
2018-07-04T12:06:40.063Z,42.98
2018-07-04T12:07:40.893Z,43.02
2018-07-04T12:08:40.647Z,43.30
2018-07-04T12:09:42.456Z,43.16
2018-07-04T12:10:43.400Z,43.13
2018-07-04T12:11:43.093Z,42.33
2018-07-04T12:12:44.866Z,42.01
2018-07-04T12:13:45.811Z,43.32
2018-07-04T12:14:45.536Z,42.95
2018-07-04T12:15:47.308Z,42.50
2018-07-04T12:16:48.081Z,42.99
2018-07-04T12:17:48.857Z,42.77
2018-07-04T12:18:49.625Z,42.76
2018-07-04T12:19:50.426Z,42.80
2018-07-04T12:20:51.255Z,43.68
2018-07-04T12:21:51.181Z,43.98
2018-07-04T12:22:51.882Z,42.90
2018-07-04T12:23:53.656Z,43.85
2018-07-04T12:24:54.445Z,42.80
2018-07-04T12:25:54.399Z,43.68
2018-07-04T12:26:55.150Z,45.11
2018-07-04T12:27:55.868Z,43.96
2018-07-04T12:28:57.639Z,45.83
2018-07-04T12:29:58.814Z,43.42
2018-07-04T12:30:59.261Z,43.50
2018-07-04T12:43:19.082Z,49.15
2018-07-04T12:44:19.835Z,49.20
2018-07-04T12:45:20.611Z,46.79
2018-07-04T12:46:21.409Z,49.33
2018-07-04T12:47:22.222Z,48.98
2018-07-04T12:48:21.964Z,49.20
2018-07-04T12:49:23.732Z,49.17
2018-07-04T12:50:24.499Z,48.84
2018-07-04T12:51:25.292Z,46.58
2018-07-04T12:52:26.062Z,48.50
2018-07-04T12:53:26.836Z,45.99
2018-07-04T12:54:27.658Z,46.84
2018-07-04T12:55:27.388Z,46.61
2018-07-04T12:56:29.191Z,48.74
2018-07-04T12:57:29.958Z,48.11
2018-07-04T12:58:30.734Z,47.96
2018-07-04T12:59:31.553Z,48.92
2018-07-04T13:00:31.283Z,48.48
2018-07-04T13:01:33.075Z,48.57
2018-07-04T13:02:33.845Z,49.02
2018-07-04T13:03:34.616Z,48.42
2018-07-04T13:04:35.407Z,48.68
2018-07-04T13:05:36.178Z,48.51
2018-07-04T13:06:37.727Z,48.45
2018-07-04T13:07:36.408Z,46.68
2018-07-04T13:08:38.192Z,47.97
2018-07-04T13:09:37.966Z,47.89
2018-07-04T13:10:42.883Z,48.01
2018-07-04T13:11:39.676Z,49.13
2018-07-04T13:12:40.461Z,48.46
2018-07-04T13:13:42.221Z,47.58
2018-07-04T13:14:43.012Z,46.93
2018-07-04T13:15:43.767Z,46.46
2018-07-04T13:16:44.576Z,46.07
2018-07-04T13:17:45.352Z,46.38
2018-07-04T13:18:46.129Z,46.24
2018-07-04T13:19:46.919Z,46.13
2018-07-04T13:20:47.742Z,45.99
2018-07-04T13:21:50.270Z,46.18
2018-07-04T13:22:49.054Z,45.83
2018-07-04T13:23:49.847Z,45.68
2018-07-04T13:24:49.594Z,45.47
2018-07-04T13:25:51.379Z,45.55
2018-07-04T13:26:52.169Z,45.43
2018-07-04T13:27:52.970Z,45.15
2018-07-04T13:28:53.715Z,44.71
2018-07-04T13:29:54.503Z,44.40
2018-07-04T13:30:55.262Z,44.84
2018-07-04T13:31:56.112Z,44.45
2018-07-04T13:32:55.830Z,44.16
2018-07-04T13:33:57.620Z,44.00
2018-07-04T13:34:58.395Z,43.66
2018-07-04T13:35:59.182Z,43.75
2018-07-04T13:36:59.964Z,43.79
2018-07-04T13:38:00.742Z,43.55
2018-07-04T13:39:01.519Z,43.69
2018-07-04T13:40:02.338Z,44.02
2018-07-04T13:41:02.063Z,43.72
2018-07-04T13:42:03.861Z,43.61
2018-07-04T13:43:04.669Z,43.57
2018-07-04T13:44:04.433Z,43.53
2018-07-04T13:45:06.218Z,43.48
2018-07-04T13:46:06.007Z,43.51